createdAt,value
2018-04-26T04:03:53.927Z,4.77
2018-04-26T04:06:20.724Z,6.93
2018-04-26T04:08:47.512Z,5.63
2018-04-26T04:11:14.310Z,7.00
2018-04-26T04:13:41.104Z,6.83
2018-04-26T04:16:08.188Z,5.57
2018-04-26T04:18:35.000Z,6.83
2018-04-26T04:21:01.738Z,5.33
2018-04-26T04:23:28.511Z,6.10
2018-04-26T04:25:55.304Z,6.40
2018-04-26T04:28:22.088Z,7.23
2018-04-26T04:30:48.862Z,7.27
2018-04-26T04:33:15.661Z,7.17
2018-04-26T04:35:42.779Z,9.20
2018-04-26T04:38:09.537Z,8.40
2018-04-26T04:40:36.348Z,7.73
2018-04-26T04:43:03.124Z,8.40
2018-04-26T04:45:30.067Z,9.10
2018-04-26T04:47:57.061Z,11.00
2018-04-26T04:50:23.829Z,7.67
2018-04-26T04:52:50.604Z,9.00
2018-04-26T04:55:17.384Z,10.63
2018-04-26T04:57:44.164Z,8.40
2018-04-26T05:00:10.934Z,9.10
2018-04-26T05:02:37.696Z,8.70
2018-04-26T05:05:04.492Z,8.77
2018-04-26T05:07:32.057Z,7.80
2018-04-26T05:09:58.809Z,5.93
2018-04-26T05:12:25.569Z,6.90
2018-04-26T05:14:52.309Z,7.73
2018-04-26T05:17:19.078Z,7.57
2018-04-26T05:19:45.947Z,8.70
2018-04-26T05:22:12.669Z,8.37
2018-04-26T05:24:39.414Z,7.90
2018-04-26T05:27:06.196Z,8.70
2018-04-26T05:29:32.983Z,7.00
2018-04-26T05:31:59.769Z,7.83
2018-04-26T05:34:26.548Z,8.60
2018-04-26T05:36:53.586Z,7.60
2018-04-26T05:39:20.365Z,9.17
2018-04-26T05:41:47.129Z,7.80
2018-04-26T05:44:13.942Z,8.87
2018-04-26T05:46:40.731Z,8.63
2018-04-26T05:49:07.729Z,7.97
2018-04-26T05:51:34.501Z,7.40
2018-04-26T05:54:01.247Z,7.03
2018-04-26T05:56:28.044Z,7.13
2018-04-26T05:58:54.793Z,9.27
2018-04-26T06:01:21.549Z,8.00
2018-04-26T06:03:49.343Z,7.07
2018-04-26T06:06:16.127Z,7.87
2018-04-26T06:08:42.964Z,7.63
2018-04-26T06:11:09.768Z,7.80
2018-04-26T06:13:36.618Z,7.87
2018-04-26T06:16:03.402Z,8.73
2018-04-26T06:18:30.175Z,7.70
2018-04-26T06:20:56.961Z,7.77
2018-04-26T06:23:23.772Z,7.93
2018-04-26T06:25:50.514Z,8.47
2018-04-26T06:28:17.279Z,6.93
2018-04-26T06:30:44.060Z,8.33
2018-04-26T06:33:11.313Z,5.07
2018-04-26T06:35:38.089Z,7.40
2018-04-26T06:38:04.856Z,7.10
2018-04-26T06:40:31.615Z,7.00
2018-04-26T06:42:58.369Z,8.30
2018-04-26T06:45:25.163Z,8.17
2018-04-26T06:47:52.000Z,6.70
2018-04-26T06:50:19.480Z,6.30
2018-04-26T06:52:46.244Z,7.57
2018-04-26T06:55:13.000Z,5.60
2018-04-26T06:57:39.804Z,7.97
2018-04-26T07:00:06.605Z,6.80
2018-04-26T07:02:33.389Z,7.43
2018-04-26T07:05:00.438Z,6.43
2018-04-26T07:07:27.249Z,5.80
2018-04-26T07:09:54.033Z,5.83
2018-04-26T07:12:21.496Z,4.77
2018-04-26T07:14:48.241Z,6.67
2018-04-26T07:17:15.062Z,6.50
2018-04-26T07:19:41.855Z,5.87
2018-04-26T07:22:08.606Z,6.20
2018-04-26T07:24:35.405Z,4.90
2018-04-26T07:27:02.509Z,6.67
2018-04-26T07:29:29.269Z,5.63
2018-04-26T07:31:56.756Z,6.63
2018-04-26T07:34:23.510Z,5.10
2018-04-26T07:36:50.266Z,4.23
2018-04-26T07:39:17.034Z,6.10
2018-04-26T07:41:43.785Z,5.07
2018-04-26T07:44:10.573Z,4.93
2018-04-26T07:46:37.345Z,4.47
2018-04-26T07:49:04.123Z,4.73
2018-04-26T07:51:32.058Z,4.80
2018-04-26T07:53:58.800Z,4.70
2018-04-26T07:56:25.571Z,4.83
2018-04-26T07:58:52.322Z,4.80
2018-04-26T08:01:19.110Z,4.80
2018-04-26T08:03:45.889Z,3.90
2018-04-26T08:06:12.661Z,4.80
2018-04-26T08:08:40.141Z,1.50
2018-04-26T08:11:06.887Z,5.30
2018-04-26T08:13:33.693Z,4.10
2018-04-26T08:16:00.441Z,5.17
2018-04-26T08:18:27.195Z,4.83
2018-04-26T08:20:54.576Z,3.43
2018-04-26T08:23:21.333Z,3.20
2018-04-26T08:25:48.144Z,1.10
2018-04-26T08:28:15.031Z,4.17
2018-04-26T08:30:41.783Z,1.87
2018-04-26T08:33:08.540Z,3.60
2018-04-26T08:35:35.285Z,2.80
2018-04-26T08:38:02.673Z,4.20
2018-04-26T08:40:29.454Z,4.07
2018-04-26T08:42:56.214Z,4.03
2018-04-26T08:45:23.171Z,5.90
2018-04-26T08:47:49.940Z,4.27
2018-04-26T08:50:16.742Z,3.57
2018-04-26T08:52:43.530Z,6.13
2018-04-26T08:55:10.334Z,6.20
2018-04-26T08:57:37.825Z,3.97
2018-04-26T09:00:04.615Z,4.27
2018-04-26T09:02:31.441Z,4.00
2018-04-26T09:04:58.205Z,3.70
2018-04-26T09:07:25.020Z,5.10
2018-04-26T09:09:51.773Z,5.23
2018-04-26T09:12:18.512Z,3.53
2018-04-26T09:14:46.234Z,2.17
2018-04-26T09:17:13.006Z,3.37
2018-04-26T09:19:39.753Z,2.30
2018-04-26T09:22:06.532Z,2.40
2018-04-26T09:24:33.317Z,3.50
2018-04-26T09:27:00.089Z,5.10
2018-04-26T09:29:27.058Z,4.30
2018-04-26T09:31:54.500Z,5.40
2018-04-26T09:34:21.324Z,5.10
2018-04-26T09:36:48.101Z,4.97
2018-04-26T09:39:15.276Z,5.00
2018-04-26T09:41:42.249Z,4.60
2018-04-26T09:44:09.008Z,4.30
2018-04-26T09:46:35.843Z,3.10
2018-04-26T09:49:02.598Z,1.73
2018-04-26T09:51:29.391Z,2.10
2018-04-26T09:53:56.168Z,2.47
2018-04-26T09:56:22.928Z,2.07
2018-04-26T09:58:49.719Z,1.90
2018-04-26T10:01:21.403Z,1.43
2018-04-26T10:03:53.741Z,1.70
2018-04-26T10:06:27.105Z,1.80
2018-04-26T10:08:53.911Z,1.70
2018-04-26T10:11:20.699Z,1.47
2018-04-26T10:13:47.468Z,1.33
2018-04-26T10:16:14.256Z,1.60
2018-04-26T10:18:41.326Z,1.80
2018-04-26T10:21:08.210Z,1.67
2018-04-26T10:23:34.911Z,1.67
2018-04-26T10:26:01.712Z,1.10
2018-04-26T10:28:28.453Z,1.87
2018-04-26T10:30:55.206Z,1.47
2018-04-26T10:33:22.625Z,1.70
2018-04-26T10:35:49.380Z,1.60
2018-04-26T10:38:16.121Z,1.90
2018-04-26T10:40:42.867Z,1.30
2018-04-26T10:43:09.618Z,2.30
2018-04-26T10:45:36.417Z,1.43
2018-04-26T10:48:03.155Z,1.60
2018-04-26T10:50:29.928Z,2.00
2018-04-26T10:52:56.695Z,2.70
2018-04-26T10:55:23.956Z,1.30
2018-04-26T10:57:51.343Z,2.23
2018-04-26T11:00:18.124Z,3.27
2018-04-26T11:02:45.037Z,1.47
2018-04-26T11:05:11.967Z,2.80
2018-04-26T11:07:38.740Z,2.00
2018-04-26T11:10:05.545Z,2.73
2018-04-26T11:12:32.333Z,2.50
2018-04-26T11:14:59.112Z,1.77
2018-04-26T11:17:25.869Z,1.03
2018-04-26T11:19:52.626Z,0.87
2018-04-26T11:22:19.409Z,0.80
2018-04-26T11:24:46.149Z,1.67
2018-04-26T11:27:12.955Z,2.00
2018-04-26T11:29:39.694Z,1.00
2018-04-26T11:32:06.473Z,1.20
2018-04-26T11:34:33.260Z,1.33
2018-04-26T11:37:00.324Z,0.83
2018-04-26T11:39:27.108Z,1.33
2018-04-26T11:41:53.887Z,1.23
2018-04-26T11:44:20.648Z,0.77
2018-04-26T11:46:47.484Z,1.17
2018-04-26T11:49:14.246Z,1.13
2018-04-26T11:51:41.000Z,1.07
2018-04-26T11:54:07.740Z,1.23
2018-04-26T11:56:34.476Z,0.80
2018-04-26T11:59:01.276Z,2.20
2018-04-26T12:01:28.788Z,0.60
2018-04-26T12:03:55.533Z,0.93
2018-04-26T12:06:22.305Z,1.17
2018-04-26T12:08:49.083Z,0.90
2018-04-26T12:11:15.884Z,0.63
2018-04-26T12:13:42.639Z,0.57
2018-04-26T12:16:09.849Z,0.83
2018-04-26T12:18:36.610Z,1.50
2018-04-26T12:21:03.401Z,0.93
2018-04-26T12:23:30.204Z,0.80
2018-04-26T12:25:56.965Z,1.70
2018-04-26T12:28:23.732Z,0.80
2018-04-26T12:30:50.500Z,2.20
2018-04-26T12:33:17.284Z,1.77
2018-04-26T12:35:44.065Z,0.90
2018-04-26T12:38:10.831Z,0.93
2018-04-26T12:40:37.648Z,1.20
2018-04-26T12:43:04.481Z,0.87
2018-04-26T12:45:31.258Z,1.00
2018-04-26T12:47:58.065Z,0.93
2018-04-26T12:50:24.824Z,1.00
2018-04-26T12:52:51.588Z,0.63
2018-04-26T12:55:18.360Z,0.93
2018-04-26T12:57:45.100Z,2.93
2018-04-26T13:00:11.898Z,1.53
2018-04-26T13:02:38.747Z,1.17
2018-04-26T13:05:05.560Z,1.30
2018-04-26T13:07:32.328Z,1.30
2018-04-26T13:09:59.335Z,2.80
2018-04-26T13:12:26.156Z,1.20
2018-04-26T13:14:52.905Z,1.20
2018-04-26T13:17:19.759Z,1.90
2018-04-26T13:19:47.198Z,1.93
2018-04-26T13:22:13.968Z,2.50
2018-04-26T13:24:41.053Z,2.30
2018-04-26T13:27:07.874Z,2.43
2018-04-26T13:29:34.672Z,2.40
2018-04-26T13:32:01.434Z,2.30
2018-04-26T13:34:28.801Z,2.33
2018-04-26T13:36:55.919Z,2.00
2018-04-26T13:39:22.678Z,1.60
2018-04-26T13:41:49.441Z,1.90
2018-04-26T13:44:16.229Z,1.63
2018-04-26T13:46:42.989Z,2.57
2018-04-26T13:49:09.845Z,1.97
2018-04-26T13:51:36.633Z,1.60
2018-04-26T13:54:03.413Z,1.40
2018-04-26T13:56:30.176Z,1.73
2018-04-26T13:58:57.003Z,2.00
2018-04-26T14:01:23.810Z,2.50
2018-04-26T14:03:50.576Z,1.37
2018-04-26T14:06:17.342Z,1.30
2018-04-26T14:08:44.818Z,3.27
2018-04-26T14:11:11.584Z,0.83
2018-04-26T14:13:38.382Z,2.53
2018-04-26T14:16:05.137Z,2.27
2018-04-26T14:18:31.907Z,2.03
2018-04-26T14:20:58.718Z,2.23
2018-04-26T14:23:25.512Z,2.23
2018-04-26T14:25:52.340Z,2.27
2018-04-26T14:28:19.109Z,2.73
2018-04-26T14:30:45.876Z,2.70
2018-04-26T14:33:12.620Z,2.47
2018-04-26T14:35:39.418Z,2.93
2018-04-26T14:38:06.199Z,2.80
2018-04-26T14:40:32.980Z,2.33
2018-04-26T14:42:59.756Z,2.30
2018-04-26T14:45:27.137Z,3.00
2018-04-26T14:47:53.917Z,2.30
2018-04-26T14:50:20.702Z,2.20
2018-04-26T14:52:47.824Z,1.40
2018-04-26T14:55:15.577Z,2.00
2018-04-26T14:57:42.352Z,2.77
2018-04-26T15:00:09.110Z,1.13
2018-04-26T15:02:35.921Z,2.47
2018-04-26T15:05:02.741Z,2.43
2018-04-26T15:07:29.495Z,1.60
2018-04-26T15:09:56.264Z,2.57
2018-04-26T15:12:23.001Z,2.10
2018-04-26T15:14:49.803Z,1.93
2018-04-26T15:17:16.546Z,1.90
2018-04-26T15:19:43.329Z,2.40
2018-04-26T15:22:10.089Z,2.70
2018-04-26T15:24:37.607Z,2.70
2018-04-26T15:27:04.399Z,3.00
2018-04-26T15:29:31.469Z,2.20
2018-04-26T15:31:58.220Z,1.90
2018-04-26T15:34:25.037Z,2.67
2018-04-26T15:36:52.457Z,2.20
2018-04-26T15:39:19.260Z,2.33
2018-04-26T15:41:46.397Z,2.20
2018-04-26T15:44:13.191Z,2.17
2018-04-26T15:46:39.990Z,3.10
2018-04-26T15:49:06.772Z,1.00
2018-04-26T15:51:33.573Z,2.90
2018-04-26T15:54:06.296Z,2.70
2018-04-26T15:56:39.025Z,1.03
2018-04-26T15:59:11.693Z,3.13
2018-04-26T16:02:00.877Z,2.37
2018-04-26T16:04:34.014Z,2.03
2018-04-26T16:07:27.414Z,2.20
2018-04-26T16:09:59.925Z,2.80
2018-04-26T16:12:38.245Z,2.17
2018-04-26T16:15:10.830Z,2.67
2018-04-26T16:17:49.655Z,2.50
2018-04-26T16:20:22.119Z,3.70
2018-04-26T16:23:00.598Z,2.00
2018-04-26T16:25:33.759Z,2.63
2018-04-26T16:28:12.212Z,2.03
2018-04-26T16:30:44.793Z,0.87
2018-04-26T16:33:17.572Z,3.00
2018-04-26T16:35:50.206Z,2.37
2018-04-26T16:38:23.119Z,2.70
2018-04-26T16:40:49.889Z,2.00
2018-04-26T16:43:16.648Z,2.93
2018-04-26T16:45:43.443Z,3.00
2018-04-26T16:48:10.534Z,1.73
2018-04-26T16:50:37.776Z,3.00
2018-04-26T16:53:04.525Z,3.30
2018-04-26T16:55:31.308Z,2.87
2018-04-26T16:57:58.153Z,1.60
2018-04-26T17:00:24.904Z,3.10
2018-04-26T17:02:51.645Z,1.50
2018-04-26T17:05:18.385Z,3.17
2018-04-26T17:07:45.922Z,3.30
2018-04-26T17:10:12.667Z,3.70
2018-04-26T17:12:39.444Z,1.20
2018-04-26T17:15:06.463Z,2.17
2018-04-26T17:17:33.232Z,3.07
2018-04-26T17:20:00.044Z,2.77
2018-04-26T17:22:26.893Z,2.90
2018-04-26T17:24:53.631Z,4.20
2018-04-26T17:27:20.398Z,3.53
2018-04-26T17:29:47.187Z,3.00
2018-04-26T17:32:14.078Z,2.53
2018-04-26T17:34:40.846Z,2.77
2018-04-26T17:37:07.697Z,3.93
2018-04-26T17:39:34.472Z,2.33
2018-04-26T17:42:01.235Z,3.30
2018-04-26T17:44:28.030Z,2.63
2018-04-26T17:46:54.800Z,2.40
2018-04-26T17:49:21.593Z,2.93
2018-04-26T17:51:49.015Z,3.00
2018-04-26T17:54:15.792Z,2.90
2018-04-26T17:56:42.599Z,1.90
2018-04-26T17:59:09.343Z,2.93
2018-04-26T18:01:36.088Z,1.33
2018-04-26T18:04:03.692Z,3.40
2018-04-26T18:06:30.389Z,2.87
2018-04-26T18:08:57.179Z,3.23
2018-04-26T18:11:23.938Z,3.00
2018-04-26T18:13:50.832Z,3.33
2018-04-26T18:16:17.625Z,2.67
2018-04-26T18:18:44.404Z,3.10
2018-04-26T18:21:11.736Z,2.97
2018-04-26T18:23:38.627Z,3.10
2018-04-26T18:26:05.490Z,3.37
2018-04-26T18:28:33.038Z,2.93
2018-04-26T18:30:59.866Z,2.93
2018-04-26T18:33:26.720Z,3.27
2018-04-26T18:35:53.589Z,1.97
2018-04-26T18:38:21.261Z,3.30
2018-04-26T18:40:48.292Z,3.30
2018-04-26T18:43:15.054Z,1.73
2018-04-26T18:45:41.898Z,2.80
2018-04-26T18:48:08.990Z,3.10
2018-04-26T18:50:36.078Z,2.50
2018-04-26T18:53:03.547Z,4.67
2018-04-26T18:55:30.336Z,3.60
2018-04-26T18:57:57.136Z,3.70
2018-04-26T19:00:23.881Z,2.80
2018-04-26T19:02:50.702Z,3.30
2018-04-26T19:05:17.422Z,3.33
2018-04-26T19:07:44.655Z,2.90
2018-04-26T19:10:11.454Z,2.90
2018-04-26T19:12:38.229Z,1.97
2018-04-26T19:15:05.014Z,3.00
2018-04-26T19:17:32.061Z,3.20
2018-04-26T19:19:59.133Z,3.73
2018-04-26T19:22:25.939Z,4.27
2018-04-26T19:24:52.916Z,4.23
2018-04-26T19:27:19.837Z,3.83
2018-04-26T19:29:46.711Z,4.00
2018-04-26T19:32:14.381Z,2.73
2018-04-26T19:34:41.171Z,3.80
2018-04-26T19:37:07.964Z,3.47
2018-04-26T19:39:34.758Z,4.03
2018-04-26T19:42:01.814Z,3.90
2018-04-26T19:44:28.574Z,3.80
2018-04-26T19:46:56.079Z,3.63
2018-04-26T19:49:22.868Z,4.10
